sensor_id;sensor_type;location;lat;lon;timestamp;temperature;humidity
45008;DHT22;30743;52.008;5.644;2023-04-01T00:02:06;12.60;99.90
45008;DHT22;30743;52.008;5.644;2023-04-01T00:04:32;12.60;99.90
45008;DHT22;30743;52.008;5.644;2023-04-01T00:06:58;12.50;99.90
45008;DHT22;30743;52.008;5.644;2023-04-01T00:09:24;12.60;99.90
45008;DHT22;30743;52.008;5.644;2023-04-01T00:11:50;12.50;99.90
45008;DHT22;30743;52.008;5.644;2023-04-01T00:14:15;12.50;99.90
45008;DHT22;30743;52.008;5.644;2023-04-01T00:16:41;12.40;99.90
45008;DHT22;30743;52.008;5.644;2023-04-01T00:19:07;12.30;99.90
45008;DHT22;30743;52.008;5.644;2023-04-01T00:21:32;12.50;99.90
45008;DHT22;30743;52.008;5.644;2023-04-01T00:23:58;12.50;99.90
45008;DHT22;30743;52.008;5.644;2023-04-01T00:26:24;12.50;99.90
45008;DHT22;30743;52.008;5.644;2023-04-01T00:28:50;12.40;99.90
45008;DHT22;30743;52.008;5.644;2023-04-01T00:31:16;12.70;99.90
45008;DHT22;30743;52.008;5.644;2023-04-01T00:33:41;12.70;99.90
45008;DHT22;30743;52.008;5.644;2023-04-01T00:36:11;12.60;99.90
45008;DHT22;30743;52.008;5.644;2023-04-01T00:38:37;12.50;99.90
45008;DHT22;30743;52.008;5.644;2023-04-01T00:41:03;12.60;99.90
45008;DHT22;30743;52.008;5.644;2023-04-01T00:43:29;12.80;99.90
45008;DHT22;30743;52.008;5.644;2023-04-01T00:45:55;12.70;99.90
45008;DHT22;30743;52.008;5.644;2023-04-01T00:48:30;12.60;99.90
45008;DHT22;30743;52.008;5.644;2023-04-01T00:51:04;12.60;99.90
45008;DHT22;30743;52.008;5.644;2023-04-01T00:53:32;12.70;99.90
45008;DHT22;30743;52.008;5.644;2023-04-01T00:56:24;12.80;99.90
45008;DHT22;30743;52.008;5.644;2023-04-01T00:58:56;12.70;99.90
45008;DHT22;30743;52.008;5.644;2023-04-01T01:01:24;12.70;99.90
45008;DHT22;30743;52.008;5.644;2023-04-01T01:03:51;12.70;99.90
45008;DHT22;30743;52.008;5.644;2023-04-01T01:06:26;12.80;99.90
45008;DHT22;30743;52.008;5.644;2023-04-01T01:20:11;12.40;99.90
45008;DHT22;30743;52.008;5.644;2023-04-01T01:26:03;12.30;99.90
45008;DHT22;30743;52.008;5.644;2023-04-01T01:31:37;12.80;99.90
45008;DHT22;30743;52.008;5.644;2023-04-01T01:34:22;12.80;99.90
45008;DHT22;30743;52.008;5.644;2023-04-01T01:36:55;12.60;99.90
45008;DHT22;30743;52.008;5.644;2023-04-01T01:39:26;12.70;99.90
45008;DHT22;30743;52.008;5.644;2023-04-01T01:41:58;12.60;99.90
45008;DHT22;30743;52.008;5.644;2023-04-01T01:44:26;12.30;99.90
45008;DHT22;30743;52.008;5.644;2023-04-01T01:46:53;12.30;99.90
45008;DHT22;30743;52.008;5.644;2023-04-01T01:49:21;12.40;99.90
45008;DHT22;30743;52.008;5.644;2023-04-01T01:51:47;12.50;99.90
45008;DHT22;30743;52.008;5.644;2023-04-01T01:54:15;12.50;99.90
45008;DHT22;30743;52.008;5.644;2023-04-01T01:56:42;12.30;99.90
45008;DHT22;30743;52.008;5.644;2023-04-01T01:59:11;12.20;99.90
45008;DHT22;30743;52.008;5.644;2023-04-01T02:01:42;12.10;99.90
45008;DHT22;30743;52.008;5.644;2023-04-01T02:04:10;12.20;99.90
45008;DHT22;30743;52.008;5.644;2023-04-01T02:06:39;12.20;99.90
45008;DHT22;30743;52.008;5.644;2023-04-01T02:09:08;12.30;99.90
45008;DHT22;30743;52.008;5.644;2023-04-01T02:11:49;12.20;99.90
45008;DHT22;30743;52.008;5.644;2023-04-01T02:14:25;12.20;99.90
45008;DHT22;30743;52.008;5.644;2023-04-01T02:16:59;12.20;99.90
45008;DHT22;30743;52.008;5.644;2023-04-01T02:19:34;12.20;99.90
45008;DHT22;30743;52.008;5.644;2023-04-01T02:22:03;12.20;99.90
45008;DHT22;30743;52.008;5.644;2023-04-01T02:24:31;12.20;99.90
45008;DHT22;30743;52.008;5.644;2023-04-01T02:26:57;12.30;99.90
45008;DHT22;30743;52.008;5.644;2023-04-01T02:29:24;12.20;99.90
45008;DHT22;30743;52.008;5.644;2023-04-01T02:31:53;12.10;99.90
45008;DHT22;30743;52.008;5.644;2023-04-01T02:34:20;12.00;99.90
45008;DHT22;30743;52.008;5.644;2023-04-01T02:36:47;12.00;99.90
45008;DHT22;30743;52.008;5.644;2023-04-01T02:39:13;12.00;99.90
45008;DHT22;30743;52.008;5.644;2023-04-01T02:41:41;11.90;99.90
45008;DHT22;30743;52.008;5.644;2023-04-01T02:44:07;12.00;99.90
45008;DHT22;30743;52.008;5.644;2023-04-01T02:46:33;12.10;99.90
45008;DHT22;30743;52.008;5.644;2023-04-01T02:48:58;12.10;99.90
45008;DHT22;30743;52.008;5.644;2023-04-01T02:51:25;11.90;99.90
45008;DHT22;30743;52.008;5.644;2023-04-01T02:53:51;12.00;99.90
45008;DHT22;30743;52.008;5.644;2023-04-01T02:56:16;12.10;99.90
45008;DHT22;30743;52.008;5.644;2023-04-01T02:58:42;12.10;99.90
45008;DHT22;30743;52.008;5.644;2023-04-01T03:01:08;12.10;99.90
45008;DHT22;30743;52.008;5.644;2023-04-01T03:03:33;12.00;99.90
45008;DHT22;30743;52.008;5.644;2023-04-01T03:06:05;12.10;99.90
45008;DHT22;30743;52.008;5.644;2023-04-01T03:08:31;12.00;99.90
45008;DHT22;30743;52.008;5.644;2023-04-01T03:10:56;11.90;99.90
45008;DHT22;30743;52.008;5.644;2023-04-01T03:13:22;11.90;99.90
45008;DHT22;30743;52.008;5.644;2023-04-01T03:15:48;12.10;99.90
45008;DHT22;30743;52.008;5.644;2023-04-01T03:18:13;11.90;99.90
45008;DHT22;30743;52.008;5.644;2023-04-01T03:20:39;11.80;99.90
45008;DHT22;30743;52.008;5.644;2023-04-01T03:23:04;11.80;99.90
45008;DHT22;30743;52.008;5.644;2023-04-01T03:25:30;11.90;99.90
45008;DHT22;30743;52.008;5.644;2023-04-01T03:27:56;12.00;99.90
45008;DHT22;30743;52.008;5.644;2023-04-01T03:30:21;12.10;99.90
45008;DHT22;30743;52.008;5.644;2023-04-01T03:32:47;12.10;99.90
45008;DHT22;30743;52.008;5.644;2023-04-01T03:35:12;12.00;99.90
45008;DHT22;30743;52.008;5.644;2023-04-01T03:37:38;12.00;99.90
45008;DHT22;30743;52.008;5.644;2023-04-01T03:40:04;12.00;99.90
45008;DHT22;30743;52.008;5.644;2023-04-01T03:42:30;12.10;99.90
45008;DHT22;30743;52.008;5.644;2023-04-01T03:44:57;12.20;99.90
45008;DHT22;30743;52.008;5.644;2023-04-01T03:47:23;12.10;99.90
45008;DHT22;30743;52.008;5.644;2023-04-01T03:49:48;12.10;99.90
45008;DHT22;30743;52.008;5.644;2023-04-01T03:52:14;13.60;99.90
45008;DHT22;30743;52.008;5.644;2023-04-01T03:54:39;12.10;99.90
45008;DHT22;30743;52.008;5.644;2023-04-01T03:57:05;12.20;99.90
45008;DHT22;30743;52.008;5.644;2023-04-01T03:59:31;12.10;99.90
45008;DHT22;30743;52.008;5.644;2023-04-01T04:01:57;12.20;99.90
45008;DHT22;30743;52.008;5.644;2023-04-01T04:04:23;12.30;99.90
45008;DHT22;30743;52.008;5.644;2023-04-01T04:06:48;12.20;99.90
45008;DHT22;30743;52.008;5.644;2023-04-01T04:09:14;12.10;99.90
45008;DHT22;30743;52.008;5.644;2023-04-01T04:11:39;11.90;99.90
45008;DHT22;30743;52.008;5.644;2023-04-01T04:14:05;12.20;99.90
45008;DHT22;30743;52.008;5.644;2023-04-01T04:16:30;12.40;99.90
45008;DHT22;30743;52.008;5.644;2023-04-01T04:18:56;12.50;99.90
45008;DHT22;30743;52.008;5.644;2023-04-01T04:21:22;12.60;99.90
45008;DHT22;30743;52.008;5.644;2023-04-01T04:23:47;12.60;99.90
45008;DHT22;30743;52.008;5.644;2023-04-01T04:26:14;12.60;99.90
45008;DHT22;30743;52.008;5.644;2023-04-01T04:28:40;12.70;99.90
45008;DHT22;30743;52.008;5.644;2023-04-01T04:31:06;12.80;99.90
45008;DHT22;30743;52.008;5.644;2023-04-01T04:33:32;12.80;99.90
45008;DHT22;30743;52.008;5.644;2023-04-01T04:35:58;12.90;99.90
45008;DHT22;30743;52.008;5.644;2023-04-01T04:38:25;12.90;99.90
45008;DHT22;30743;52.008;5.644;2023-04-01T04:40:51;13.00;99.90
45008;DHT22;30743;52.008;5.644;2023-04-01T04:43:17;12.90;99.90
45008;DHT22;30743;52.008;5.644;2023-04-01T04:45:43;13.30;99.90
45008;DHT22;30743;52.008;5.644;2023-04-01T04:48:13;13.40;99.90
45008;DHT22;30743;52.008;5.644;2023-04-01T04:50:47;13.30;99.90
45008;DHT22;30743;52.008;5.644;2023-04-01T04:53:14;13.30;99.90
45008;DHT22;30743;52.008;5.644;2023-04-01T04:55:47;13.40;99.90
45008;DHT22;30743;52.008;5.644;2023-04-01T04:58:13;13.50;99.90
45008;DHT22;30743;52.008;5.644;2023-04-01T05:00:39;13.50;99.90
45008;DHT22;30743;52.008;5.644;2023-04-01T05:03:04;13.70;99.90
45008;DHT22;30743;52.008;5.644;2023-04-01T05:05:30;13.50;99.90
45008;DHT22;30743;52.008;5.644;2023-04-01T05:07:55;13.60;99.90
45008;DHT22;30743;52.008;5.644;2023-04-01T05:10:21;13.80;99.90
45008;DHT22;30743;52.008;5.644;2023-04-01T05:12:46;13.90;99.90
45008;DHT22;30743;52.008;5.644;2023-04-01T05:15:12;13.90;99.90
45008;DHT22;30743;52.008;5.644;2023-04-01T05:17:38;14.00;99.90
45008;DHT22;30743;52.008;5.644;2023-04-01T05:20:04;13.90;99.90
45008;DHT22;30743;52.008;5.644;2023-04-01T05:22:30;14.00;99.90
45008;DHT22;30743;52.008;5.644;2023-04-01T05:24:55;14.00;99.90
45008;DHT22;30743;52.008;5.644;2023-04-01T05:27:21;14.30;99.90
45008;DHT22;30743;52.008;5.644;2023-04-01T05:29:47;14.50;99.90
45008;DHT22;30743;52.008;5.644;2023-04-01T05:32:12;14.50;99.90
45008;DHT22;30743;52.008;5.644;2023-04-01T05:34:38;14.60;99.90
45008;DHT22;30743;52.008;5.644;2023-04-01T05:37:03;14.70;99.90
45008;DHT22;30743;52.008;5.644;2023-04-01T05:39:29;14.70;99.90
45008;DHT22;30743;52.008;5.644;2023-04-01T05:41:55;14.60;99.90
45008;DHT22;30743;52.008;5.644;2023-04-01T05:44:20;14.70;99.90
45008;DHT22;30743;52.008;5.644;2023-04-01T05:46:46;14.60;99.90
45008;DHT22;30743;52.008;5.644;2023-04-01T05:49:11;14.70;99.90
45008;DHT22;30743;52.008;5.644;2023-04-01T05:51:37;14.70;99.90
45008;DHT22;30743;52.008;5.644;2023-04-01T05:54:04;14.70;99.90
45008;DHT22;30743;52.008;5.644;2023-04-01T05:56:30;14.80;99.90
45008;DHT22;30743;52.008;5.644;2023-04-01T05:58:56;14.80;99.90
45008;DHT22;30743;52.008;5.644;2023-04-01T06:01:21;14.90;99.90
45008;DHT22;30743;52.008;5.644;2023-04-01T06:03:47;15.00;99.90
45008;DHT22;30743;52.008;5.644;2023-04-01T06:06:23;15.00;99.90
45008;DHT22;30743;52.008;5.644;2023-04-01T06:08:49;15.10;99.90
45008;DHT22;30743;52.008;5.644;2023-04-01T06:14:35;15.10;99.90
45008;DHT22;30743;52.008;5.644;2023-04-01T06:23:10;15.00;99.90
45008;DHT22;30743;52.008;5.644;2023-04-01T06:28:46;15.00;99.90
45008;DHT22;30743;52.008;5.644;2023-04-01T06:31:36;15.00;99.90
45008;DHT22;30743;52.008;5.644;2023-04-01T06:37:23;15.00;99.90
45008;DHT22;30743;52.008;5.644;2023-04-01T06:40:02;15.00;99.90
45008;DHT22;30743;52.008;5.644;2023-04-01T06:55:42;15.10;99.90
45008;DHT22;30743;52.008;5.644;2023-04-01T06:58:30;15.10;99.90
45008;DHT22;30743;52.008;5.644;2023-04-01T07:00:58;15.00;99.90
45008;DHT22;30743;52.008;5.644;2023-04-01T07:03:34;15.00;99.90
45008;DHT22;30743;52.008;5.644;2023-04-01T07:06:06;14.90;99.90
45008;DHT22;30743;52.008;5.644;2023-04-01T07:08:36;14.80;99.90
45008;DHT22;30743;52.008;5.644;2023-04-01T07:11:09;14.90;99.90
45008;DHT22;30743;52.008;5.644;2023-04-01T07:13:58;14.90;99.90
45008;DHT22;30743;52.008;5.644;2023-04-01T07:16:35;14.90;99.90
45008;DHT22;30743;52.008;5.644;2023-04-01T07:21:44;14.90;99.90
45008;DHT22;30743;52.008;5.644;2023-04-01T07:24:27;15.10;99.90
45008;DHT22;30743;52.008;5.644;2023-04-01T07:26:56;14.80;99.90
45008;DHT22;30743;52.008;5.644;2023-04-01T07:29:22;14.80;99.90
45008;DHT22;30743;52.008;5.644;2023-04-01T07:37:59;15.10;99.90
45008;DHT22;30743;52.008;5.644;2023-04-01T07:40:48;15.10;99.90
45008;DHT22;30743;52.008;5.644;2023-04-01T07:43:22;15.30;99.90
45008;DHT22;30743;52.008;5.644;2023-04-01T07:46:00;15.30;99.90
45008;DHT22;30743;52.008;5.644;2023-04-01T07:51:32;15.20;99.90
45008;DHT22;30743;52.008;5.644;2023-04-01T07:54:43;15.40;99.90
45008;DHT22;30743;52.008;5.644;2023-04-01T07:57:30;15.40;99.90
45008;DHT22;30743;52.008;5.644;2023-04-01T08:05:18;15.40;99.90
45008;DHT22;30743;52.008;5.644;2023-04-01T08:07:57;15.50;99.90
45008;DHT22;30743;52.008;5.644;2023-04-01T08:13:15;15.40;99.90
45008;DHT22;30743;52.008;5.644;2023-04-01T08:18:41;15.70;99.90
45008;DHT22;30743;52.008;5.644;2023-04-01T08:21:28;15.70;99.90
45008;DHT22;30743;52.008;5.644;2023-04-01T08:24:00;15.70;99.90
45008;DHT22;30743;52.008;5.644;2023-04-01T08:26:41;15.50;99.90
45008;DHT22;30743;52.008;5.644;2023-04-01T08:29:20;15.50;99.90
45008;DHT22;30743;52.008;5.644;2023-04-01T08:31:57;15.60;99.90
45008;DHT22;30743;52.008;5.644;2023-04-01T08:34:33;15.70;99.90
45008;DHT22;30743;52.008;5.644;2023-04-01T08:37:19;15.70;99.90
45008;DHT22;30743;52.008;5.644;2023-04-01T08:39:48;15.80;99.90
45008;DHT22;30743;52.008;5.644;2023-04-01T08:42:39;15.80;99.90
45008;DHT22;30743;52.008;5.644;2023-04-01T08:50:49;15.80;99.90
45008;DHT22;30743;52.008;5.644;2023-04-01T08:53:26;15.80;99.90
45008;DHT22;30743;52.008;5.644;2023-04-01T08:56:20;15.80;99.90
45008;DHT22;30743;52.008;5.644;2023-04-01T09:01:57;15.80;99.90
45008;DHT22;30743;52.008;5.644;2023-04-01T09:05:14;15.90;99.90
45008;DHT22;30743;52.008;5.644;2023-04-01T09:08:15;15.80;99.90
45008;DHT22;30743;52.008;5.644;2023-04-01T09:11:08;15.70;99.90
45008;DHT22;30743;52.008;5.644;2023-04-01T09:19:28;15.70;99.90
45008;DHT22;30743;52.008;5.644;2023-04-01T09:28:01;15.70;99.90
45008;DHT22;30743;52.008;5.644;2023-04-01T09:31:31;15.70;99.90
45008;DHT22;30743;52.008;5.644;2023-04-01T09:34:05;15.80;99.90
45008;DHT22;30743;52.008;5.644;2023-04-01T09:44:34;16.30;99.90
45008;DHT22;30743;52.008;5.644;2023-04-01T09:47:27;16.40;99.90
45008;DHT22;30743;52.008;5.644;2023-04-01T09:52:51;16.70;99.90
45008;DHT22;30743;52.008;5.644;2023-04-01T10:02:10;16.90;99.90
45008;DHT22;30743;52.008;5.644;2023-04-01T10:27:50;19.90;99.90
45008;DHT22;30743;52.008;5.644;2023-04-01T10:30:51;20.30;99.90
45008;DHT22;30743;52.008;5.644;2023-04-01T10:33:38;20.60;99.90
45008;DHT22;30743;52.008;5.644;2023-04-01T10:39:20;20.70;99.90
45008;DHT22;30743;52.008;5.644;2023-04-01T10:42:20;20.70;99.90
45008;DHT22;30743;52.008;5.644;2023-04-01T10:48:22;20.50;99.90
45008;DHT22;30743;52.008;5.644;2023-04-01T10:54:17;20.60;99.90
45008;DHT22;30743;52.008;5.644;2023-04-01T10:56:55;20.50;99.90
45008;DHT22;30743;52.008;5.644;2023-04-01T11:02:58;20.40;99.90
45008;DHT22;30743;52.008;5.644;2023-04-01T11:05:52;20.10;99.90
45008;DHT22;30743;52.008;5.644;2023-04-01T11:08:43;19.80;99.90
45008;DHT22;30743;52.008;5.644;2023-04-01T11:17:23;19.20;99.90
45008;DHT22;30743;52.008;5.644;2023-04-01T11:22:51;18.90;99.90
45008;DHT22;30743;52.008;5.644;2023-04-01T11:28:20;18.50;99.90
45008;DHT22;30743;52.008;5.644;2023-04-01T11:42:07;18.30;99.90
45008;DHT22;30743;52.008;5.644;2023-04-01T11:44:29;18.50;99.90
45008;DHT22;30743;52.008;5.644;2023-04-01T12:03:51;17.20;99.90
45008;DHT22;30743;52.008;5.644;2023-04-01T12:12:12;17.40;99.90
45008;DHT22;30743;52.008;5.644;2023-04-01T12:17:39;17.60;99.90
45008;DHT22;30743;52.008;5.644;2023-04-01T12:20:49;17.60;99.90
45008;DHT22;30743;52.008;5.644;2023-04-01T12:28:43;17.50;99.90
45008;DHT22;30743;52.008;5.644;2023-04-01T12:37:04;17.50;99.90
45008;DHT22;30743;52.008;5.644;2023-04-01T12:42:40;17.70;99.90
45008;DHT22;30743;52.008;5.644;2023-04-01T12:45:33;17.70;99.90
45008;DHT22;30743;52.008;5.644;2023-04-01T12:51:01;17.80;99.90
45008;DHT22;30743;52.008;5.644;2023-04-01T12:53:44;17.90;99.90
45008;DHT22;30743;52.008;5.644;2023-04-01T12:59:48;17.80;99.90
45008;DHT22;30743;52.008;5.644;2023-04-01T13:02:00;17.90;99.90
45008;DHT22;30743;52.008;5.644;2023-04-01T13:10:25;18.00;99.90
45008;DHT22;30743;52.008;5.644;2023-04-01T13:13:12;17.80;99.90
45008;DHT22;30743;52.008;5.644;2023-04-01T13:15:54;17.80;99.90
45008;DHT22;30743;52.008;5.644;2023-04-01T13:21:45;18.00;99.90
45008;DHT22;30743;52.008;5.644;2023-04-01T13:24:28;18.20;99.90
45008;DHT22;30743;52.008;5.644;2023-04-01T13:27:05;18.20;99.90
45008;DHT22;30743;52.008;5.644;2023-04-01T13:29:38;18.20;99.90
45008;DHT22;30743;52.008;5.644;2023-04-01T13:32:23;17.90;99.90
45008;DHT22;30743;52.008;5.644;2023-04-01T13:35:16;17.80;99.90
45008;DHT22;30743;52.008;5.644;2023-04-01T13:40:36;17.40;99.90
45008;DHT22;30743;52.008;5.644;2023-04-01T13:43:28;17.50;99.90
45008;DHT22;30743;52.008;5.644;2023-04-01T13:56:41;17.70;99.90
45008;DHT22;30743;52.008;5.644;2023-04-01T14:10:57;17.50;99.90
45008;DHT22;30743;52.008;5.644;2023-04-01T14:14:09;17.60;99.90
45008;DHT22;30743;52.008;5.644;2023-04-01T14:37:14;17.50;99.90
45008;DHT22;30743;52.008;5.644;2023-04-01T14:45:20;17.50;99.90
45008;DHT22;30743;52.008;5.644;2023-04-01T14:47:53;17.10;99.90
45008;DHT22;30743;52.008;5.644;2023-04-01T14:50:21;16.80;99.90
45008;DHT22;30743;52.008;5.644;2023-04-01T14:52:59;16.50;99.90
45008;DHT22;30743;52.008;5.644;2023-04-01T14:58:16;16.60;99.90
45008;DHT22;30743;52.008;5.644;2023-04-01T15:00:47;16.70;99.90
45008;DHT22;30743;52.008;5.644;2023-04-01T15:03:17;16.60;99.90
45008;DHT22;30743;52.008;5.644;2023-04-01T15:05:56;16.60;99.90
45008;DHT22;30743;52.008;5.644;2023-04-01T15:11:21;16.20;99.90
45008;DHT22;30743;52.008;5.644;2023-04-01T15:14:00;15.90;99.90
45008;DHT22;30743;52.008;5.644;2023-04-01T15:19:31;15.70;99.90
45008;DHT22;30743;52.008;5.644;2023-04-01T15:22:27;15.60;99.90
45008;DHT22;30743;52.008;5.644;2023-04-01T15:25:21;15.60;99.90
45008;DHT22;30743;52.008;5.644;2023-04-01T15:28:16;15.00;99.90
45008;DHT22;30743;52.008;5.644;2023-04-01T15:31:04;14.70;99.90
45008;DHT22;30743;52.008;5.644;2023-04-01T15:33:58;14.90;99.90
45008;DHT22;30743;52.008;5.644;2023-04-01T15:39:35;14.80;99.90
45008;DHT22;30743;52.008;5.644;2023-04-01T15:55:54;14.30;99.90
45008;DHT22;30743;52.008;5.644;2023-04-01T16:09:39;13.80;99.90
45008;DHT22;30743;52.008;5.644;2023-04-01T16:12:16;13.90;99.90
45008;DHT22;30743;52.008;5.644;2023-04-01T16:14:56;14.10;99.90
45008;DHT22;30743;52.008;5.644;2023-04-01T16:20:25;14.00;99.90
45008;DHT22;30743;52.008;5.644;2023-04-01T16:26:07;13.90;99.90
45008;DHT22;30743;52.008;5.644;2023-04-01T16:28:39;13.80;99.90
45008;DHT22;30743;52.008;5.644;2023-04-01T16:31:43;13.80;99.90
45008;DHT22;30743;52.008;5.644;2023-04-01T16:37:20;13.60;99.90
45008;DHT22;30743;52.008;5.644;2023-04-01T16:39:49;13.60;99.90
45008;DHT22;30743;52.008;5.644;2023-04-01T16:42:49;13.60;99.90
45008;DHT22;30743;52.008;5.644;2023-04-01T16:47:50;13.40;99.90
45008;DHT22;30743;52.008;5.644;2023-04-01T16:50:19;13.30;99.90
45008;DHT22;30743;52.008;5.644;2023-04-01T16:55:41;13.10;99.90
45008;DHT22;30743;52.008;5.644;2023-04-01T16:58:09;13.00;99.90
45008;DHT22;30743;52.008;5.644;2023-04-01T17:00:44;13.00;99.90
45008;DHT22;30743;52.008;5.644;2023-04-01T17:03:22;13.20;99.90
45008;DHT22;30743;52.008;5.644;2023-04-01T17:06:02;13.30;99.90
45008;DHT22;30743;52.008;5.644;2023-04-01T17:13:37;13.60;99.90
45008;DHT22;30743;52.008;5.644;2023-04-01T17:19:03;13.50;99.90
45008;DHT22;30743;52.008;5.644;2023-04-01T17:21:47;13.30;99.90
45008;DHT22;30743;52.008;5.644;2023-04-01T17:24:38;13.20;99.90
45008;DHT22;30743;52.008;5.644;2023-04-01T17:30:33;13.00;99.90
45008;DHT22;30743;52.008;5.644;2023-04-01T17:33:35;12.90;99.90
45008;DHT22;30743;52.008;5.644;2023-04-01T17:39:40;12.60;99.90
45008;DHT22;30743;52.008;5.644;2023-04-01T17:52:58;12.50;99.90
45008;DHT22;30743;52.008;5.644;2023-04-01T17:55:48;12.40;99.90
45008;DHT22;30743;52.008;5.644;2023-04-01T17:58:19;12.50;99.90
45008;DHT22;30743;52.008;5.644;2023-04-01T18:09:39;12.40;99.90
45008;DHT22;30743;52.008;5.644;2023-04-01T18:14:54;12.20;99.90
45008;DHT22;30743;52.008;5.644;2023-04-01T18:17:43;12.20;99.90
45008;DHT22;30743;52.008;5.644;2023-04-01T18:31:23;12.30;99.90
45008;DHT22;30743;52.008;5.644;2023-04-01T18:36:53;12.20;99.90
45008;DHT22;30743;52.008;5.644;2023-04-01T18:39:42;12.20;99.90
45008;DHT22;30743;52.008;5.644;2023-04-01T18:42:28;12.10;99.90
45008;DHT22;30743;52.008;5.644;2023-04-01T18:48:00;12.10;99.90
45008;DHT22;30743;52.008;5.644;2023-04-01T18:51:14;11.90;99.90
45008;DHT22;30743;52.008;5.644;2023-04-01T18:53:20;11.70;99.90
45008;DHT22;30743;52.008;5.644;2023-04-01T18:56:06;11.60;99.90
45008;DHT22;30743;52.008;5.644;2023-04-01T18:58:50;11.90;99.90
45008;DHT22;30743;52.008;5.644;2023-04-01T19:06:53;11.50;99.90
45008;DHT22;30743;52.008;5.644;2023-04-01T19:09:52;11.60;99.90
45008;DHT22;30743;52.008;5.644;2023-04-01T19:32:52;11.50;99.90
45008;DHT22;30743;52.008;5.644;2023-04-01T19:40:16;11.30;99.90
45008;DHT22;30743;52.008;5.644;2023-04-01T19:51:41;11.20;99.90
45008;DHT22;30743;52.008;5.644;2023-04-01T19:54:38;11.00;99.90
45008;DHT22;30743;52.008;5.644;2023-04-01T20:04:54;10.70;99.90
45008;DHT22;30743;52.008;5.644;2023-04-01T20:07:26;10.80;99.90
45008;DHT22;30743;52.008;5.644;2023-04-01T20:12:49;11.00;99.90
45008;DHT22;30743;52.008;5.644;2023-04-01T20:17:48;11.30;99.90
45008;DHT22;30743;52.008;5.644;2023-04-01T20:20:20;11.40;99.90
45008;DHT22;30743;52.008;5.644;2023-04-01T20:27:58;11.10;99.90
45008;DHT22;30743;52.008;5.644;2023-04-01T20:30:29;11.00;99.90
45008;DHT22;30743;52.008;5.644;2023-04-01T20:36:21;10.80;99.90
45008;DHT22;30743;52.008;5.644;2023-04-01T20:44:28;10.70;99.90
45008;DHT22;30743;52.008;5.644;2023-04-01T20:50:25;10.60;99.90
45008;DHT22;30743;52.008;5.644;2023-04-01T20:58:52;10.60;99.90
45008;DHT22;30743;52.008;5.644;2023-04-01T21:04:27;10.60;99.90
45008;DHT22;30743;52.008;5.644;2023-04-01T21:07:25;10.60;99.90
45008;DHT22;30743;52.008;5.644;2023-04-01T21:13:43;10.60;99.90
45008;DHT22;30743;52.008;5.644;2023-04-01T21:19:17;10.50;99.90
45008;DHT22;30743;52.008;5.644;2023-04-01T21:25:01;10.40;99.90
45008;DHT22;30743;52.008;5.644;2023-04-01T21:50:44;10.30;99.90
45008;DHT22;30743;52.008;5.644;2023-04-01T21:56:44;10.10;99.90
45008;DHT22;30743;52.008;5.644;2023-04-01T21:59:23;10.00;99.90
45008;DHT22;30743;52.008;5.644;2023-04-01T22:05:03;10.20;99.90
45008;DHT22;30743;52.008;5.644;2023-04-01T22:10:57;10.10;99.90
45008;DHT22;30743;52.008;5.644;2023-04-01T22:13:37;9.90;99.90
45008;DHT22;30743;52.008;5.644;2023-04-01T22:19:05;10.00;99.90
45008;DHT22;30743;52.008;5.644;2023-04-01T22:24:15;10.00;99.90
45008;DHT22;30743;52.008;5.644;2023-04-01T22:26:48;10.00;99.90
45008;DHT22;30743;52.008;5.644;2023-04-01T22:29:23;9.80;99.90
45008;DHT22;30743;52.008;5.644;2023-04-01T22:31:59;9.80;99.90
45008;DHT22;30743;52.008;5.644;2023-04-01T22:40:21;9.80;99.90
45008;DHT22;30743;52.008;5.644;2023-04-01T22:43:03;9.90;99.90
45008;DHT22;30743;52.008;5.644;2023-04-01T22:45:40;9.90;99.90
45008;DHT22;30743;52.008;5.644;2023-04-01T22:55:57;10.00;99.90
45008;DHT22;30743;52.008;5.644;2023-04-01T22:58:53;9.90;99.90
45008;DHT22;30743;52.008;5.644;2023-04-01T23:01:24;9.90;99.90
45008;DHT22;30743;52.008;5.644;2023-04-01T23:03:52;9.90;99.90
45008;DHT22;30743;52.008;5.644;2023-04-01T23:06:29;9.80;99.90
45008;DHT22;30743;52.008;5.644;2023-04-01T23:11:53;9.80;99.90
45008;DHT22;30743;52.008;5.644;2023-04-01T23:16:59;9.50;99.90
45008;DHT22;30743;52.008;5.644;2023-04-01T23:20:22;9.40;99.90
45008;DHT22;30743;52.008;5.644;2023-04-01T23:22:56;9.40;99.90
45008;DHT22;30743;52.008;5.644;2023-04-01T23:38:35;9.30;99.90
45008;DHT22;30743;52.008;5.644;2023-04-01T23:41:02;9.30;99.90
45008;DHT22;30743;52.008;5.644;2023-04-01T23:43:37;9.20;99.90
45008;DHT22;30743;52.008;5.644;2023-04-01T23:46:06;9.10;99.90
45008;DHT22;30743;52.008;5.644;2023-04-01T23:48:38;9.20;99.90
45008;DHT22;30743;52.008;5.644;2023-04-01T23:51:36;9.20;99.90
45008;DHT22;30743;52.008;5.644;2023-04-01T23:54:10;9.20;99.90
45008;DHT22;30743;52.008;5.644;2023-04-01T23:56:51;9.30;99.90
45008;DHT22;30743;52.008;5.644;2023-04-01T23:59:23;9.30;99.90
